Time;durP1;ratioP1;P1;durP2;ratioP2;P2;SDS_P1;SDS_P2;PMS_P1;PMS_P2;Temp;Humidity;BMP_temperature;BMP_pressure;BME280_temperature;BME280_humidity;BME280_pressure;Samples;Min_cycle;Max_cycle;Signal;HPM_P1;HPM_P2
2022/06/15 01:28:46;;;;;;;2.70;2.47;;;;;;;;;;6234912;22;20207;-85
2022/06/15 03:28:49;;;;;;;;;;;;;;;;;;;;;
2022/06/15 03:41:29;;;;;;;2.85;2.53;;;;;;;;;;6094493;23;20233;-86
2022/06/15 04:23:53;;;;;;;3.13;2.92;;;;;;;;;;6270568;22;20281;-87
2022/06/15 04:35:40;;;;;;;3.05;2.85;;;;;;;;;;6210824;23;20180;-87
2022/06/15 04:38:50;;;;;;;3.25;2.95;;;;;;;;;;6211799;23;20173;-87
2022/06/15 04:41:22;;;;;;;3.17;2.85;;;;;;;;;;6128007;23;20163;-83
2022/06/15 04:50:45;;;;;;;18.45;7.00;;;;;;;;;;5979232;24;20189;-87
2022/06/15 05:21:07;;;;;;;6.65;4.20;;;;;;;;;;6003892;23;20248;-87
2022/06/15 05:34:13;;;;;;;;;;;;;;;;;;;;;
2022/06/15 05:39:37;;;;;;;11.70;4.55;;;;;;;;;;6261643;22;20184;-84
2022/06/15 05:42:28;;;;;;;12.10;4.78;;;;;;;;;;6245810;23;20211;-86
2022/06/15 05:45:20;;;;;;;6.88;3.97;;;;;;;;;;6245965;23;20199;-86
2022/06/15 06:21:09;;;;;;;8.18;4.93;;;;;;;;;;6242836;23;20230;-86
2022/06/15 06:27:26;;;;;;;7.57;4.40;;;;;;;;;;6212179;22;20244;-85
2022/06/15 06:33:12;;;;;;;6.68;4.10;;;;;;;;;;6239217;23;20169;-85
2022/06/15 07:01:40;;;;;;;5.63;3.95;;;;;;;;;;6150407;23;20179;-88
2022/06/15 07:07:11;;;;;;;7.43;4.32;;;;;;;;;;6215566;22;20552;-85
2022/06/15 07:09:38;;;;;;;6.28;4.00;;;;;;;;;;6307876;22;20179;-85
2022/06/15 07:12:06;;;;;;;6.97;4.15;;;;;;;;;;6308106;22;20221;-85
2022/06/15 07:14:33;;;;;;;6.05;4.10;;;;;;;;;;6307780;22;20194;-85
2022/06/15 07:17:01;;;;;;;6.60;4.30;;;;;;;;;;6307487;22;20186;-85
2022/06/15 07:19:28;;;;;;;5.00;3.92;;;;;;;;;;6307593;22;20647;-85
2022/06/15 07:21:56;;;;;;;4.78;4.10;;;;;;;;;;6307534;22;20171;-84
2022/06/15 07:24:24;;;;;;;4.50;3.78;;;;;;;;;;6308229;22;20222;-85
2022/06/15 07:26:52;;;;;;;5.00;3.85;;;;;;;;;;6307789;22;20256;-85
2022/06/15 07:29:21;;;;;;;6.25;3.70;;;;;;;;;;6308294;22;20205;-85
2022/06/15 07:31:52;;;;;;;5.57;4.15;;;;;;;;;;6307904;22;20569;-85
2022/06/15 07:34:19;;;;;;;6.07;4.30;;;;;;;;;;6308192;22;20163;-86
2022/06/15 07:36:47;;;;;;;5.35;4.00;;;;;;;;;;6307599;22;20199;-85
2022/06/15 07:39:15;;;;;;;4.88;3.80;;;;;;;;;;6307907;22;20231;-85
2022/06/15 07:41:47;;;;;;;6.70;3.92;;;;;;;;;;6307793;22;20180;-85
2022/06/15 07:44:14;;;;;;;5.15;4.03;;;;;;;;;;6308066;22;20183;-85
2022/06/15 07:46:42;;;;;;;4.35;3.80;;;;;;;;;;6308030;22;20244;-85
2022/06/15 07:51:55;;;;;;;4.63;4.13;;;;;;;;;;6307429;22;20155;-86
2022/06/15 07:54:23;;;;;;;4.90;3.88;;;;;;;;;;6307439;22;20458;-85
2022/06/15 07:56:52;;;;;;;4.13;3.75;;;;;;;;;;6307469;22;20195;-85
2022/06/15 07:59:20;;;;;;;4.15;3.75;;;;;;;;;;6307366;22;20197;-85
2022/06/15 08:01:47;;;;;;;4.38;3.90;;;;;;;;;;6307507;22;20201;-85
2022/06/15 08:04:15;;;;;;;4.22;3.80;;;;;;;;;;6307449;22;20213;-84
2022/06/15 08:06:44;;;;;;;4.13;3.60;;;;;;;;;;6316783;22;20263;-85
2022/06/15 08:09:13;;;;;;;4.25;3.70;;;;;;;;;;6338319;22;20171;-85
2022/06/15 08:12:11;;;;;;;4.25;3.65;;;;;;;;;;6337939;22;20171;-85
2022/06/15 08:14:31;;;;;;;4.60;3.72;;;;;;;;;;6337861;22;20177;-85
2022/06/15 08:16:58;;;;;;;3.90;3.50;;;;;;;;;;6337527;22;20194;-85
2022/06/15 08:19:25;;;;;;;4.10;3.70;;;;;;;;;;6337970;22;20566;-85
2022/06/15 08:21:53;;;;;;;4.50;3.63;;;;;;;;;;6337816;22;20192;-85
2022/06/15 08:24:21;;;;;;;5.30;3.80;;;;;;;;;;6338038;22;20190;-85
2022/06/15 08:26:48;;;;;;;5.30;3.50;;;;;;;;;;6338419;22;20216;-85
2022/06/15 08:29:16;;;;;;;3.80;3.40;;;;;;;;;;6338276;22;20201;-85
2022/06/15 08:31:45;;;;;;;4.32;3.88;;;;;;;;;;6338509;22;20201;-86
2022/06/15 08:34:12;;;;;;;4.30;3.67;;;;;;;;;;6338661;22;20162;-86
2022/06/15 08:36:39;;;;;;;3.72;3.38;;;;;;;;;;6338005;22;20190;-85
2022/06/15 08:39:07;;;;;;;4.78;3.60;;;;;;;;;;6338802;22;20226;-85
2022/06/15 08:41:41;;;;;;;4.28;3.60;;;;;;;;;;6339783;22;20170;-85
2022/06/15 08:44:12;;;;;;;4.40;4.00;;;;;;;;;;6340643;22;20182;-85
2022/06/15 08:46:45;;;;;;;3.97;3.50;;;;;;;;;;6340075;22;20190;-84
2022/06/15 08:49:21;;;;;;;5.03;3.47;;;;;;;;;;6339988;22;20169;-85
2022/06/15 08:51:52;;;;;;;3.90;3.60;;;;;;;;;;6337598;22;20185;-84
2022/06/15 08:54:21;;;;;;;3.92;3.60;;;;;;;;;;6338064;22;20166;-84
2022/06/15 08:56:51;;;;;;;4.70;3.45;;;;;;;;;;6337704;22;20246;-84
2022/06/15 08:59:21;;;;;;;3.85;3.47;;;;;;;;;;6338119;22;20175;-84
2022/06/15 09:01:51;;;;;;;3.40;3.10;;;;;;;;;;6337947;22;20171;-84
2022/06/15 09:04:28;;;;;;;4.05;3.38;;;;;;;;;;6337653;22;20197;-84
2022/06/15 09:06:59;;;;;;;4.18;3.50;;;;;;;;;;6337112;22;20209;-85
2022/06/15 09:09:33;;;;;;;3.95;3.30;;;;;;;;;;6337875;22;20232;-85
2022/06/15 09:15:00;;;;;;;4.00;3.50;;;;;;;;;;6337752;22;20162;-84
2022/06/15 09:17:28;;;;;;;3.80;3.42;;;;;;;;;;6336846;22;20213;-85
2022/06/15 09:20:01;;;;;;;3.65;3.25;;;;;;;;;;6337579;22;20245;-85
2022/06/15 09:22:30;;;;;;;3.65;3.35;;;;;;;;;;6337840;22;20245;-85
2022/06/15 09:25:00;;;;;;;4.43;3.50;;;;;;;;;;6337223;22;20217;-84
2022/06/15 09:27:30;;;;;;;3.88;3.40;;;;;;;;;;6335816;22;20195;-85
2022/06/15 09:30:00;;;;;;;3.53;3.22;;;;;;;;;;6337058;22;20178;-85
2022/06/15 09:32:30;;;;;;;3.42;3.10;;;;;;;;;;6336984;22;20171;-85
2022/06/15 09:35:01;;;;;;;3.60;3.30;;;;;;;;;;6337110;22;20238;-85
2022/06/15 09:37:31;;;;;;;3.60;3.30;;;;;;;;;;6336387;22;20218;-85
2022/06/15 09:39:59;;;;;;;3.92;3.60;;;;;;;;;;6337141;22;20169;-84
2022/06/15 09:42:28;;;;;;;3.60;3.30;;;;;;;;;;6338107;22;20201;-86
2022/06/15 09:45:00;;;;;;;3.85;3.42;;;;;;;;;;6337511;22;20240;-87
2022/06/15 09:47:39;;;;;;;3.65;3.35;;;;;;;;;;6337572;22;20190;-86
2022/06/15 10:02:39;;;;;;;3.42;3.13;;;;;;;;;;6334641;22;20170;-88
2022/06/15 10:05:24;;;;;;;3.53;3.22;;;;;;;;;;6328628;22;20202;-86
2022/06/15 10:08:11;;;;;;;3.33;3.13;;;;;;;;;;6336770;22;20194;-86
2022/06/15 10:10:47;;;;;;;3.28;3.00;;;;;;;;;;6337207;22;20227;-86
2022/06/15 10:13:56;;;;;;;3.40;3.10;;;;;;;;;;6337362;22;20192;-86
2022/06/15 10:16:28;;;;;;;4.25;3.70;;;;;;;;;;6337203;22;20193;-83
2022/06/15 10:18:57;;;;;;;4.30;3.75;;;;;;;;;;6337057;22;20167;-84
2022/06/15 10:21:26;;;;;;;5.15;4.00;;;;;;;;;;6336939;22;20240;-84
2022/06/15 10:23:56;;;;;;;17.55;12.15;;;;;;;;;;6336413;22;20177;-83
2022/06/15 10:26:28;;;;;;;16.77;10.65;;;;;;;;;;6337275;22;20226;-86
2022/06/15 10:28:56;;;;;;;15.85;10.35;;;;;;;;;;6337535;22;20232;-89
2022/06/15 10:31:27;;;;;;;16.42;10.07;;;;;;;;;;6337381;22;20170;-90
2022/06/15 10:33:56;;;;;;;16.13;10.32;;;;;;;;;;6337074;22;20315;-89
2022/06/15 10:36:28;;;;;;;15.98;9.60;;;;;;;;;;6337850;22;20193;-88
2022/06/15 10:39:01;;;;;;;15.43;9.45;;;;;;;;;;6338815;22;20212;-88
2022/06/15 10:41:47;;;;;;;14.48;10.18;;;;;;;;;;6338289;22;20170;-87
2022/06/15 10:44:15;;;;;;;13.73;9.20;;;;;;;;;;6337376;22;20167;-87
2022/06/15 10:46:53;;;;;;;12.45;8.35;;;;;;;;;;6336311;22;20269;-88
2022/06/15 10:49:21;;;;;;;9.93;6.75;;;;;;;;;;6336785;22;20170;-86
2022/06/15 10:51:48;;;;;;;9.52;6.38;;;;;;;;;;6337803;22;20178;-90
2022/06/15 10:54:21;;;;;;;9.82;7.00;;;;;;;;;;6336554;22;20198;-89
2022/06/15 11:02:28;;;;;;;7.50;5.78;;;;;;;;;;6336670;22;20497;-88
2022/06/15 11:04:57;;;;;;;27.40;7.65;;;;;;;;;;6336620;22;20186;-85
2022/06/15 11:07:30;;;;;;;6.60;3.20;;;;;;;;;;6336335;22;20251;-85
2022/06/15 11:10:07;;;;;;;8.77;4.25;;;;;;;;;;6337494;22;20166;-87
2022/06/15 11:12:40;;;;;;;3.78;3.25;;;;;;;;;;6336401;22;20223;-87
2022/06/15 11:15:22;;;;;;;5.20;3.17;;;;;;;;;;6337436;22;20159;-85
2022/06/15 11:18:03;;;;;;;5.22;3.65;;;;;;;;;;6336171;22;20194;-87
2022/06/15 11:20:34;;;;;;;5.63;3.72;;;;;;;;;;6337128;22;20170;-91
2022/06/15 11:23:28;;;;;;;4.30;2.80;;;;;;;;;;6337089;22;20170;-87
2022/06/15 11:25:57;;;;;;;3.67;2.83;;;;;;;;;;6335593;22;20190;-84
2022/06/15 11:28:28;;;;;;;4.80;2.80;;;;;;;;;;6336289;22;20224;-87
2022/06/15 11:30:59;;;;;;;5.45;2.90;;;;;;;;;;6336671;22;20166;-88
2022/06/15 11:33:30;;;;;;;4.38;3.28;;;;;;;;;;6336640;22;20595;-88
2022/06/15 11:36:03;;;;;;;4.35;3.28;;;;;;;;;;6337232;22;20671;-86
2022/06/15 11:38:36;;;;;;;5.05;3.00;;;;;;;;;;6336778;22;20224;-88
2022/06/15 11:41:12;;;;;;;4.13;2.85;;;;;;;;;;6336498;22;20201;-88
2022/06/15 11:43:49;;;;;;;3.25;2.65;;;;;;;;;;6336076;22;20166;-88
2022/06/15 11:46:39;;;;;;;3.38;2.83;;;;;;;;;;6336025;22;20213;-89
2022/06/15 11:49:19;;;;;;;3.03;2.72;;;;;;;;;;6150590;23;20171;-87
2022/06/15 11:55:01;;;;;;;3.42;2.90;;;;;;;;;;6313336;22;20175;-87
2022/06/15 11:58:03;;;;;;;3.78;3.05;;;;;;;;;;6212107;23;20189;-86
2022/06/15 12:00:47;;;;;;;3.67;2.72;;;;;;;;;;6213384;23;20183;-86
2022/06/15 12:14:54;;;;;;;6.30;2.85;;;;;;;;;;6251473;22;20202;-86
2022/06/15 12:17:45;;;;;;;3.03;2.50;;;;;;;;;;6243946;23;20199;-90
2022/06/15 12:20:20;;;;;;;4.03;3.00;;;;;;;;;;6243041;23;20196;-91
2022/06/15 12:22:54;;;;;;;3.10;2.60;;;;;;;;;;6246210;22;20172;-91
2022/06/15 12:25:54;;;;;;;9.18;3.83;;;;;;;;;;6245446;22;20188;-85
2022/06/15 12:34:32;;;;;;;2.90;2.60;;;;;;;;;;6121755;22;20184;-90
2022/06/15 12:37:05;;;;;;;4.93;2.63;;;;;;;;;;6245032;22;20192;-89
2022/06/15 12:39:46;;;;;;;3.85;2.90;;;;;;;;;;6246499;22;20188;-89
2022/06/15 12:42:25;;;;;;;3.55;2.72;;;;;;;;;;6246597;22;20240;-87
2022/06/15 12:55:56;;;;;;;3.28;2.88;;;;;;;;;;6368056;22;20260;-85
2022/06/15 13:04:49;;;;;;;4.40;2.95;;;;;;;;;;6212077;23;20525;-85
2022/06/15 13:07:29;;;;;;;2.78;2.58;;;;;;;;;;6229587;22;20200;-88
2022/06/15 13:10:32;;;;;;;4.97;2.92;;;;;;;;;;6274993;22;20176;-87
2022/06/15 13:13:03;;;;;;;3.20;2.90;;;;;;;;;;6276785;22;20174;-90
2022/06/15 13:15:37;;;;;;;3.92;3.20;;;;;;;;;;6278062;22;20210;-86
2022/06/15 13:18:09;;;;;;;3.63;2.92;;;;;;;;;;6280268;22;20631;-86
2022/06/15 13:20:55;;;;;;;5.43;3.10;;;;;;;;;;6279134;22;20164;-87
2022/06/15 13:23:26;;;;;;;4.30;2.63;;;;;;;;;;6279249;22;20172;-86
2022/06/15 13:25:55;;;;;;;2.75;2.53;;;;;;;;;;6278683;22;20184;-90
2022/06/15 13:28:25;;;;;;;4.13;2.85;;;;;;;;;;6278752;22;20203;-86
2022/06/15 13:34:06;;;;;;;3.38;2.80;;;;;;;;;;6276379;22;20185;-88
2022/06/15 13:36:34;;;;;;;3.15;2.80;;;;;;;;;;6276970;22;20167;-89
2022/06/15 13:39:22;;;;;;;3.22;2.80;;;;;;;;;;6276874;22;20226;-88
2022/06/15 13:42:13;;;;;;;3.95;2.95;;;;;;;;;;6277171;22;20171;-89
2022/06/15 13:44:51;;;;;;;4.50;2.75;;;;;;;;;;6275980;22;20199;-91
2022/06/15 13:47:26;;;;;;;6.57;3.10;;;;;;;;;;6275619;22;20188;-88
2022/06/15 13:50:00;;;;;;;3.20;2.90;;;;;;;;;;6275367;22;20171;-89
2022/06/15 13:52:32;;;;;;;3.90;2.88;;;;;;;;;;6275822;22;20168;-89
2022/06/15 13:55:17;;;;;;;3.42;2.60;;;;;;;;;;6276209;22;20171;-89
2022/06/15 13:58:04;;;;;;;3.50;2.80;;;;;;;;;;6259074;22;20192;-89
2022/06/15 14:00:55;;;;;;;3.20;2.80;;;;;;;;;;6274626;22;20175;-87
2022/06/15 14:06:32;;;;;;;4.43;2.65;;;;;;;;;;6272774;22;20264;-89
2022/06/15 14:11:59;;;;;;;3.95;2.83;;;;;;;;;;6274460;22;20176;-89
2022/06/15 14:17:49;;;;;;;3.45;2.97;;;;;;;;;;6247001;22;20261;-88
2022/06/15 14:23:37;;;;;;;3.15;2.85;;;;;;;;;;6273155;22;20251;-89
2022/06/15 14:26:14;;;;;;;3.42;3.00;;;;;;;;;;6275348;22;20197;-86
2022/06/15 14:31:49;;;;;;;4.43;3.13;;;;;;;;;;6272417;22;20179;-89
2022/06/15 14:34:45;;;;;;;3.63;3.00;;;;;;;;;;6275470;22;20236;-89
2022/06/15 14:37:31;;;;;;;3.35;3.05;;;;;;;;;;6276743;22;20191;-88
2022/06/15 14:40:33;;;;;;;3.13;2.92;;;;;;;;;;6275531;22;20243;-89
2022/06/15 14:43:01;;;;;;;3.22;3.00;;;;;;;;;;6275301;22;20168;-90
2022/06/15 14:51:59;;;;;;;4.22;3.28;;;;;;;;;;6260456;22;20183;-87
2022/06/15 14:54:39;;;;;;;3.72;3.42;;;;;;;;;;6241862;23;20251;-88
2022/06/15 14:57:12;;;;;;;3.55;3.25;;;;;;;;;;6241654;23;20199;-86
2022/06/15 14:59:49;;;;;;;4.30;3.35;;;;;;;;;;6242719;23;20219;-86
2022/06/15 15:02:29;;;;;;;3.22;3.00;;;;;;;;;;6241808;23;20176;-87
2022/06/15 15:05:08;;;;;;;3.55;3.13;;;;;;;;;;6241952;23;20176;-88
2022/06/15 15:36:01;;;;;;;;;;;;;;;;;;;;;
2022/06/15 16:20:03;;;;;;;4.43;3.08;;;;;;;;;;5838201;24;20182;-86
2022/06/15 16:22:43;;;;;;;2.92;2.70;;;;;;;;;;5898494;24;20187;-85
2022/06/15 16:25:13;;;;;;;2.97;2.78;;;;;;;;;;5933697;23;20205;-85
2022/06/15 16:27:43;;;;;;;3.65;3.08;;;;;;;;;;6116595;23;20245;-84
2022/06/15 16:30:29;;;;;;;3.25;2.95;;;;;;;;;;6248190;23;20183;-85
2022/06/15 16:33:06;;;;;;;3.13;2.80;;;;;;;;;;6248714;23;20168;-87
2022/06/15 16:35:49;;;;;;;3.33;3.03;;;;;;;;;;6246814;23;20172;-85
2022/06/15 16:38:21;;;;;;;2.90;2.70;;;;;;;;;;6247049;22;20220;-87
2022/06/15 16:41:08;;;;;;;2.97;2.70;;;;;;;;;;6247137;23;20167;-86
2022/06/15 16:43:50;;;;;;;3.10;2.80;;;;;;;;;;6246395;23;20203;-87
2022/06/15 16:46:33;;;;;;;3.10;2.80;;;;;;;;;;6248169;23;20200;-86
2022/06/15 16:52:38;;;;;;;3.28;3.03;;;;;;;;;;6247097;22;20177;-87
2022/06/15 16:55:43;;;;;;;;;;;;;;;;;;;;;
2022/06/15 16:58:19;;;;;;;5.20;3.30;;;;;;;;;;6246815;22;20184;-87
2022/06/15 17:00:52;;;;;;;3.15;2.90;;;;;;;;;;6246273;23;20171;-87
2022/06/15 17:03:25;;;;;;;2.80;2.60;;;;;;;;;;6246690;23;20169;-87
2022/06/15 17:05:59;;;;;;;3.33;2.78;;;;;;;;;;6246332;23;20268;-87
2022/06/15 17:08:30;;;;;;;2.90;2.70;;;;;;;;;;6245501;22;20192;-87
2022/06/15 17:11:04;;;;;;;2.60;2.40;;;;;;;;;;6245995;23;20173;-87
2022/06/15 17:13:35;;;;;;;2.67;2.45;;;;;;;;;;6246290;23;20168;-87
2022/06/15 17:16:03;;;;;;;2.80;2.60;;;;;;;;;;6245901;23;20168;-85
2022/06/15 17:18:34;;;;;;;4.15;2.70;;;;;;;;;;6245539;22;20207;-87
2022/06/15 17:21:16;;;;;;;3.65;2.88;;;;;;;;;;6246050;23;20200;-87
2022/06/15 17:23:55;;;;;;;2.70;2.50;;;;;;;;;;6245226;23;20172;-87
2022/06/15 17:26:26;;;;;;;2.95;2.75;;;;;;;;;;6245483;23;20246;-86
2022/06/15 17:29:08;;;;;;;2.78;2.58;;;;;;;;;;6246082;22;20677;-88
2022/06/15 17:31:40;;;;;;;3.78;2.70;;;;;;;;;;6247905;23;20173;-86
2022/06/15 17:34:10;;;;;;;3.13;2.83;;;;;;;;;;6247094;23;20234;-87
2022/06/15 17:36:43;;;;;;;3.00;2.65;;;;;;;;;;6246391;22;20169;-86
2022/06/15 17:39:11;;;;;;;2.90;2.70;;;;;;;;;;6245285;23;20238;-86
2022/06/15 17:42:07;;;;;;;2.70;2.50;;;;;;;;;;6247100;23;20176;-84
2022/06/15 17:44:56;;;;;;;2.63;2.50;;;;;;;;;;6246831;23;20179;-87
2022/06/15 17:47:29;;;;;;;5.25;3.00;;;;;;;;;;6246229;22;20192;-87
2022/06/15 17:50:16;;;;;;;3.38;2.70;;;;;;;;;;6246092;23;20627;-87
2022/06/15 18:23:43;;;;;;;2.80;2.60;;;;;;;;;;5924954;24;20180;-87
2022/06/15 18:48:37;;;;;;;;;;;;;;;;;;;;;
2022/06/15 19:16:40;;;;;;;2.63;2.42;;;;;;;;;;6299878;22;20194;-87
2022/06/15 19:22:28;;;;;;;3.80;2.35;;;;;;;;;;6219104;23;20180;-87
2022/06/15 19:25:16;;;;;;;;;;;;;;;;;;;;;
2022/06/15 19:28:04;;;;;;;2.30;2.10;;;;;;;;;;6279581;22;20195;-90
2022/06/15 19:30:31;;;;;;;3.50;2.33;;;;;;;;;;6281307;22;20223;-90
2022/06/15 19:33:01;;;;;;;3.42;2.25;;;;;;;;;;6278194;22;20180;-90
2022/06/15 19:35:28;;;;;;;2.75;2.15;;;;;;;;;;6277957;22;20171;-89
2022/06/15 19:38:17;;;;;;;17.85;3.65;;;;;;;;;;6277336;22;20168;-91
2022/06/15 19:40:47;;;;;;;11.05;4.15;;;;;;;;;;6246259;22;20212;-88
2022/06/15 19:43:21;;;;;;;13.40;4.88;;;;;;;;;;6246283;22;20246;-89
2022/06/15 19:48:55;;;;;;;60.35;14.55;;;;;;;;;;6247893;22;20220;-88
2022/06/15 19:54:23;;;;;;;11.18;4.95;;;;;;;;;;6229637;22;20177;-88
2022/06/15 19:56:51;;;;;;;4.88;2.67;;;;;;;;;;6247305;22;20203;-89
2022/06/15 19:59:34;;;;;;;3.85;3.17;;;;;;;;;;6247877;22;20215;-88
2022/06/15 20:05:01;;;;;;;8.00;3.42;;;;;;;;;;6244416;22;20172;-89
2022/06/15 20:07:38;;;;;;;5.45;3.55;;;;;;;;;;6246923;22;20244;-88
2022/06/15 20:10:30;;;;;;;6.05;3.78;;;;;;;;;;6247641;22;20192;-89
2022/06/15 20:15:53;;;;;;;5.32;3.70;;;;;;;;;;6272140;22;20197;-89
2022/06/15 20:18:25;;;;;;;6.93;3.42;;;;;;;;;;6272301;22;20218;-90
2022/06/15 20:20:57;;;;;;;4.47;3.33;;;;;;;;;;6272882;22;20193;-90
2022/06/15 20:23:30;;;;;;;4.93;3.55;;;;;;;;;;6273163;22;20152;-90
2022/06/15 20:31:59;;;;;;;3.70;3.30;;;;;;;;;;6223076;22;20196;-89
2022/06/15 20:37:27;;;;;;;4.68;3.10;;;;;;;;;;6244524;22;20215;-90
2022/06/15 20:40:08;;;;;;;4.25;3.28;;;;;;;;;;6250168;23;20197;-90
2022/06/15 20:46:23;;;;;;;3.70;3.40;;;;;;;;;;6213576;22;20208;-91
2022/06/15 20:48:53;;;;;;;3.78;3.10;;;;;;;;;;6234064;22;20184;-90
2022/06/15 20:51:21;;;;;;;3.40;3.10;;;;;;;;;;6245676;22;20169;-91
2022/06/15 20:54:18;;;;;;;5.13;3.53;;;;;;;;;;6246053;22;20172;-87
2022/06/15 20:56:55;;;;;;;6.15;3.58;;;;;;;;;;6245809;22;20175;-86
2022/06/15 20:59:33;;;;;;;5.30;3.83;;;;;;;;;;6245974;22;20192;-90
2022/06/15 21:02:45;;;;;;;3.80;3.50;;;;;;;;;;6245453;22;20247;-90
2022/06/15 21:05:18;;;;;;;5.65;3.88;;;;;;;;;;6244734;22;20174;-90
2022/06/15 21:07:51;;;;;;;4.95;3.92;;;;;;;;;;6244004;22;20184;-91
2022/06/15 21:18:52;;;;;;;3.35;3.05;;;;;;;;;;6275920;22;20276;-90
2022/06/15 21:21:20;;;;;;;4.47;3.30;;;;;;;;;;6275535;22;20648;-90
2022/06/15 21:23:54;;;;;;;5.38;3.75;;;;;;;;;;6275838;22;20213;-90
2022/06/15 21:26:31;;;;;;;3.60;3.35;;;;;;;;;;6275055;22;20211;-90
2022/06/15 21:29:04;;;;;;;3.33;2.78;;;;;;;;;;6275252;22;20196;-90
2022/06/15 21:31:39;;;;;;;4.20;3.90;;;;;;;;;;6275445;22;20173;-90
2022/06/15 21:34:19;;;;;;;3.63;3.33;;;;;;;;;;6275700;22;20167;-90
2022/06/15 21:45:53;;;;;;;3.70;3.40;;;;;;;;;;6275409;22;20174;-90
2022/06/15 21:48:37;;;;;;;3.50;3.20;;;;;;;;;;6273239;22;20187;-90
2022/06/15 21:51:16;;;;;;;4.35;3.95;;;;;;;;;;6275579;22;20226;-91
2022/06/15 21:57:21;;;;;;;3.45;3.15;;;;;;;;;;6214525;23;20187;-90
2022/06/15 22:03:20;;;;;;;3.95;3.20;;;;;;;;;;6287964;22;20210;-89
2022/06/15 22:06:20;;;;;;;3.75;3.40;;;;;;;;;;6275946;22;20176;-89
2022/06/15 22:11:59;;;;;;;4.15;3.78;;;;;;;;;;6264749;22;20172;-90
2022/06/15 22:14:27;;;;;;;3.75;3.42;;;;;;;;;;6275596;22;20171;-91
2022/06/15 22:16:55;;;;;;;3.72;3.30;;;;;;;;;;6276492;22;20164;-91
2022/06/15 22:19:26;;;;;;;3.40;3.10;;;;;;;;;;6277344;22;20263;-90
2022/06/15 22:21:53;;;;;;;3.38;2.88;;;;;;;;;;6276005;22;20172;-91
2022/06/15 22:24:25;;;;;;;4.60;3.20;;;;;;;;;;6276161;22;20172;-90
2022/06/15 22:26:54;;;;;;;3.60;3.10;;;;;;;;;;6275422;22;20278;-91
2022/06/15 22:29:24;;;;;;;3.20;2.90;;;;;;;;;;6276066;22;20238;-90
2022/06/15 22:31:51;;;;;;;3.75;3.30;;;;;;;;;;6276058;22;20187;-92
2022/06/15 22:34:19;;;;;;;4.57;3.00;;;;;;;;;;6276256;22;20176;-91
2022/06/15 22:36:49;;;;;;;3.30;2.97;;;;;;;;;;6276176;22;20171;-89
2022/06/15 22:39:19;;;;;;;3.22;2.90;;;;;;;;;;6275772;22;20191;-90
2022/06/15 22:41:49;;;;;;;3.08;2.78;;;;;;;;;;6275987;22;20172;-91
2022/06/15 22:44:16;;;;;;;3.72;3.40;;;;;;;;;;6276368;22;20178;-90
2022/06/15 22:46:46;;;;;;;3.20;2.90;;;;;;;;;;6274679;22;20187;-91
2022/06/15 22:52:04;;;;;;;4.05;3.42;;;;;;;;;;6212844;23;20165;-92
2022/06/15 22:54:31;;;;;;;3.40;3.10;;;;;;;;;;6212523;23;20173;-91
2022/06/15 22:57:06;;;;;;;4.13;3.47;;;;;;;;;;6251289;22;20194;-90
2022/06/15 22:59:36;;;;;;;3.33;3.10;;;;;;;;;;6275976;22;20191;-90
2022/06/15 23:02:04;;;;;;;3.80;3.40;;;;;;;;;;6275453;22;20171;-90
2022/06/15 23:04:33;;;;;;;3.35;3.05;;;;;;;;;;6276542;22;20180;-91
2022/06/15 23:07:00;;;;;;;4.35;2.83;;;;;;;;;;6276100;22;20172;-92
2022/06/15 23:09:28;;;;;;;4.00;3.70;;;;;;;;;;6276117;22;20202;-90
2022/06/15 23:11:55;;;;;;;3.60;3.30;;;;;;;;;;6276465;22;20178;-92
2022/06/15 23:14:28;;;;;;;3.50;3.20;;;;;;;;;;6276900;22;20172;-91
2022/06/15 23:16:56;;;;;;;3.65;3.35;;;;;;;;;;6276039;22;20221;-91
2022/06/15 23:19:29;;;;;;;3.42;3.22;;;;;;;;;;6276328;22;20188;-91
2022/06/15 23:21:59;;;;;;;3.60;3.30;;;;;;;;;;6275847;22;20176;-90
2022/06/15 23:24:26;;;;;;;4.22;3.15;;;;;;;;;;6275896;22;20174;-91
2022/06/15 23:26:56;;;;;;;3.50;3.20;;;;;;;;;;6276039;22;20171;-89
2022/06/15 23:29:37;;;;;;;3.67;3.38;;;;;;;;;;6276585;22;20263;-90
2022/06/15 23:32:05;;;;;;;3.67;3.30;;;;;;;;;;6276217;22;20171;-90
2022/06/15 23:34:33;;;;;;;3.25;2.85;;;;;;;;;;6275249;22;20172;-90
2022/06/15 23:37:01;;;;;;;3.55;3.25;;;;;;;;;;6274900;22;20173;-90
2022/06/15 23:39:31;;;;;;;3.95;3.55;;;;;;;;;;6274932;22;20187;-91
2022/06/15 23:42:02;;;;;;;3.33;3.10;;;;;;;;;;6274663;22;20192;-91
2022/06/15 23:44:33;;;;;;;3.38;3.08;;;;;;;;;;6275099;22;20242;-90
2022/06/15 23:49:46;;;;;;;3.67;3.25;;;;;;;;;;6275421;22;20190;-90
2022/06/15 23:52:21;;;;;;;3.20;3.00;;;;;;;;;;6276883;22;20171;-89
2022/06/15 23:54:51;;;;;;;3.80;3.08;;;;;;;;;;6277307;22;20164;-91
2022/06/15 23:57:18;;;;;;;3.45;3.15;;;;;;;;;;6276610;22;20225;-90
2022/06/15 23:59:49;;;;;;;2.95;2.70;;;;;;;;;;6276642;22;20215;-90
